createdAt,value
2018-12-10T00:00:44.088Z,94.53
2018-12-10T00:01:44.063Z,93.80
2018-12-10T00:02:46.144Z,94.53
2018-12-10T00:03:44.066Z,94.53
2018-12-10T00:04:44.068Z,94.94
2018-12-10T00:05:44.019Z,94.73
2018-12-10T00:06:44.020Z,94.84
2018-12-10T00:07:43.993Z,94.53
2018-12-10T00:08:43.992Z,94.84
2018-12-10T00:09:43.975Z,94.73
2018-12-10T00:10:44.007Z,95.15
2018-12-10T00:11:43.967Z,94.94
2018-12-10T00:12:43.967Z,95.15
2018-12-10T00:13:43.947Z,94.73
2018-12-10T00:14:43.924Z,94.84
2018-12-10T00:15:43.914Z,94.63
2018-12-10T00:16:43.911Z,94.94
2018-12-10T00:17:43.886Z,95.42
2018-12-10T00:18:43.884Z,95.42
2018-12-10T00:19:43.884Z,95.04
2018-12-10T00:20:43.862Z,95.98
2018-12-10T00:21:43.854Z,95.73
2018-12-10T00:22:43.836Z,95.94
2018-12-10T00:23:43.831Z,95.52
2018-12-10T00:24:43.832Z,95.73
2018-12-10T00:25:43.801Z,95.73
2018-12-10T00:26:43.808Z,95.83
2018-12-10T00:27:43.778Z,95.73
2018-12-10T00:28:43.778Z,95.52
2018-12-10T00:29:43.763Z,95.83
2018-12-10T00:30:43.746Z,95.56
2018-12-10T00:31:43.771Z,95.73
2018-12-10T00:32:43.737Z,95.52
2018-12-10T00:33:43.724Z,95.42
2018-12-10T00:34:43.725Z,95.52
2018-12-10T00:35:43.709Z,95.31
2018-12-10T00:36:43.701Z,95.21
2018-12-10T00:37:43.674Z,95.62
2018-12-10T00:38:43.668Z,95.52
2018-12-10T00:39:43.646Z,95.21
2018-12-10T00:40:43.645Z,95.42
2018-12-10T00:41:43.644Z,95.00
2018-12-10T00:42:43.612Z,95.52
2018-12-10T00:43:43.609Z,95.10
2018-12-10T00:44:43.609Z,95.73
2018-12-10T00:45:43.615Z,95.73
2018-12-10T00:46:43.577Z,95.42
2018-12-10T00:47:43.619Z,94.90
2018-12-10T00:48:43.570Z,95.42
2018-12-10T00:49:43.548Z,94.90
2018-12-10T00:50:43.553Z,94.69
2018-12-10T00:51:43.537Z,93.87
2018-12-10T00:52:43.511Z,94.59
2018-12-10T00:53:43.523Z,94.38
2018-12-10T00:54:43.491Z,94.03
2018-12-10T00:55:43.554Z,94.28
2018-12-10T00:56:43.481Z,93.87
2018-12-10T00:57:43.456Z,93.87
2018-12-10T00:58:43.489Z,94.07
2018-12-10T00:59:43.428Z,94.07
2018-12-10T01:00:43.464Z,93.76
2018-12-10T01:01:43.427Z,93.14
2018-12-10T01:02:43.403Z,93.66
2018-12-10T01:03:43.406Z,92.93
2018-12-10T01:04:43.382Z,92.93
2018-12-10T01:05:43.369Z,92.83
2018-12-10T01:06:43.380Z,92.46
2018-12-10T01:07:43.344Z,92.67
2018-12-10T01:08:43.341Z,93.49
2018-12-10T01:09:43.331Z,93.80
2018-12-10T01:10:43.330Z,93.49
2018-12-10T01:11:43.321Z,93.80
2018-12-10T01:12:43.296Z,93.08
2018-12-10T01:13:43.282Z,93.29
2018-12-10T01:14:43.269Z,93.80
2018-12-10T01:15:43.274Z,92.46
2018-12-10T01:16:43.286Z,92.77
2018-12-10T01:17:43.251Z,93.60
2018-12-10T01:18:43.336Z,92.87
2018-12-10T01:19:43.222Z,93.49
2018-12-10T01:20:43.213Z,93.39
2018-12-10T01:21:43.226Z,93.39
2018-12-10T01:22:43.194Z,92.87
2018-12-10T01:23:43.200Z,93.29
2018-12-10T01:24:43.165Z,93.39
2018-12-10T01:25:43.157Z,93.80
2018-12-10T01:26:43.142Z,93.70
2018-12-10T01:27:43.138Z,93.39
2018-12-10T01:28:43.139Z,93.29
2018-12-10T01:29:43.121Z,93.43
2018-12-10T01:30:43.103Z,93.54
2018-12-10T01:31:43.085Z,93.70
2018-12-10T01:32:43.077Z,93.54
2018-12-10T01:33:43.088Z,93.64
2018-12-10T01:34:43.060Z,93.54
2018-12-10T01:35:43.053Z,93.33
2018-12-10T01:36:43.039Z,93.49
2018-12-10T01:37:43.027Z,93.64
2018-12-10T01:38:43.016Z,93.23
2018-12-10T01:39:43.024Z,92.57
2018-12-10T01:40:42.992Z,92.91
2018-12-10T01:41:43.373Z,93.54
2018-12-10T01:42:42.976Z,93.08
2018-12-10T01:43:42.970Z,92.25
2018-12-10T01:44:42.983Z,91.53
2018-12-10T01:45:42.940Z,92.57
2018-12-10T01:46:42.950Z,93.18
2018-12-10T01:47:42.926Z,92.25
2018-12-10T01:48:42.914Z,93.08
2018-12-10T01:49:42.919Z,92.46
2018-12-10T01:50:42.897Z,92.57
2018-12-10T01:51:42.883Z,92.87
2018-12-10T01:52:42.867Z,92.50
2018-12-10T01:53:42.859Z,92.87
2018-12-10T01:54:42.851Z,92.57
2018-12-10T01:55:42.862Z,93.02
2018-12-10T01:56:42.827Z,92.87
2018-12-10T01:57:42.821Z,92.36
2018-12-10T01:58:42.810Z,91.67
2018-12-10T01:59:42.803Z,91.57
2018-12-10T02:00:42.808Z,91.22
2018-12-10T02:01:42.778Z,91.57
2018-12-10T02:02:42.841Z,91.57
2018-12-10T02:03:42.766Z,91.67
2018-12-10T02:04:42.782Z,91.36
2018-12-10T02:05:42.729Z,91.57
2018-12-10T02:06:42.724Z,91.78
2018-12-10T02:07:42.729Z,91.88
2018-12-10T02:08:42.708Z,91.47
2018-12-10T02:09:42.698Z,91.99
2018-12-10T02:10:42.674Z,92.03
2018-12-10T02:11:42.671Z,91.93
2018-12-10T02:12:42.644Z,92.55
2018-12-10T02:13:42.667Z,92.40
2018-12-10T02:14:42.635Z,92.91
2018-12-10T02:15:42.679Z,92.65
2018-12-10T02:16:42.620Z,92.96
2018-12-10T02:17:42.622Z,93.58
2018-12-10T02:18:42.594Z,93.16
2018-12-10T02:19:42.603Z,93.06
2018-12-10T02:20:42.570Z,93.68
2018-12-10T02:21:42.558Z,93.58
2018-12-10T02:22:42.561Z,93.06
2018-12-10T02:23:42.538Z,93.16
2018-12-10T02:24:42.621Z,93.23
2018-12-10T02:25:42.515Z,93.64
2018-12-10T02:26:42.510Z,94.31
2018-12-10T02:27:42.489Z,93.33
2018-12-10T02:28:42.487Z,93.58
2018-12-10T02:29:42.483Z,93.58
2018-12-10T02:30:42.493Z,93.68
2018-12-10T02:31:42.470Z,93.68
2018-12-10T02:32:42.441Z,93.48
2018-12-10T02:33:42.435Z,93.89
2018-12-10T02:34:42.446Z,93.54
2018-12-10T02:35:42.413Z,93.33
2018-12-10T02:36:42.392Z,93.16
2018-12-10T02:37:42.413Z,92.91
2018-12-10T02:38:42.390Z,92.65
2018-12-10T02:39:42.377Z,93.16
2018-12-10T02:40:42.371Z,93.02
2018-12-10T02:41:42.345Z,92.40
2018-12-10T02:42:42.335Z,92.40
2018-12-10T02:43:42.317Z,93.12
2018-12-10T02:44:42.394Z,92.50
2018-12-10T02:45:42.310Z,91.99
2018-12-10T02:46:42.300Z,92.40
2018-12-10T02:47:42.282Z,92.50
2018-12-10T02:48:42.271Z,92.71
2018-12-10T02:49:42.276Z,93.23
2018-12-10T02:50:42.291Z,92.71
2018-12-10T02:51:42.266Z,91.78
2018-12-10T02:52:42.238Z,93.43
2018-12-10T02:53:42.229Z,93.12
2018-12-10T02:54:42.218Z,93.33
2018-12-10T02:55:42.202Z,92.61
2018-12-10T02:56:42.211Z,92.50
2018-12-10T02:57:42.166Z,92.81
2018-12-10T02:58:42.158Z,92.50
2018-12-10T02:59:42.149Z,93.12
2018-12-10T03:00:42.153Z,92.71
2018-12-10T03:01:42.129Z,93.12
2018-12-10T03:02:42.162Z,93.02
2018-12-10T03:03:42.113Z,93.23
2018-12-10T03:04:42.104Z,92.65
2018-12-10T03:05:42.119Z,92.65
2018-12-10T03:06:42.083Z,92.55
2018-12-10T03:07:42.127Z,92.61
2018-12-10T03:08:42.076Z,92.81
2018-12-10T03:09:42.042Z,92.55
2018-12-10T03:10:42.037Z,92.96
2018-12-10T03:11:42.026Z,92.81
2018-12-10T03:12:42.031Z,93.16
2018-12-10T03:13:42.015Z,92.91
2018-12-10T03:14:41.994Z,92.85
2018-12-10T03:15:41.983Z,92.91
2018-12-10T03:16:42.027Z,92.91
2018-12-10T03:17:41.959Z,92.50
2018-12-10T03:18:41.959Z,92.44
2018-12-10T03:19:41.937Z,93.48
2018-12-10T03:20:41.923Z,93.06
2018-12-10T03:21:41.958Z,92.65
2018-12-10T03:22:41.914Z,92.65
2018-12-10T03:23:41.926Z,92.76
2018-12-10T03:24:41.898Z,93.06
2018-12-10T03:25:41.886Z,93.68
2018-12-10T03:26:41.892Z,93.58
2018-12-10T03:27:41.857Z,92.96
2018-12-10T03:28:41.836Z,92.96
2018-12-10T03:29:41.833Z,93.68
2018-12-10T03:30:41.831Z,93.37
2018-12-10T03:31:41.809Z,92.85
2018-12-10T03:32:41.819Z,93.06
2018-12-10T03:33:41.781Z,92.55
2018-12-10T03:34:41.780Z,93.68
2018-12-10T03:35:41.767Z,93.48
2018-12-10T03:36:41.761Z,93.68
2018-12-10T03:37:41.745Z,93.37
2018-12-10T03:38:41.746Z,92.96
2018-12-10T03:39:41.724Z,93.27
2018-12-10T03:40:41.725Z,93.27
2018-12-10T03:41:41.747Z,93.06
2018-12-10T03:42:41.707Z,92.85
2018-12-10T03:43:41.679Z,92.96
2018-12-10T03:44:41.685Z,92.76
2018-12-10T03:45:41.659Z,92.03
2018-12-10T03:46:41.665Z,91.78
2018-12-10T03:47:41.657Z,92.24
2018-12-10T03:48:41.626Z,92.03
2018-12-10T03:49:41.641Z,92.03
2018-12-10T03:50:41.604Z,92.09
2018-12-10T03:51:41.604Z,92.24
2018-12-10T03:52:41.586Z,92.50
2018-12-10T03:53:41.578Z,93.06
2018-12-10T03:54:41.560Z,93.16
2018-12-10T03:55:41.550Z,92.96
2018-12-10T03:56:41.549Z,92.44
2018-12-10T03:57:41.554Z,92.55
2018-12-10T03:58:41.530Z,92.65
2018-12-10T03:59:41.570Z,92.55
2018-12-10T04:00:41.491Z,92.85
2018-12-10T04:01:41.478Z,92.76
2018-12-10T04:02:41.523Z,92.65
2018-12-10T04:03:41.457Z,93.68
2018-12-10T04:04:41.455Z,93.58
2018-12-10T04:05:41.452Z,93.58
2018-12-10T04:06:41.455Z,93.79
2018-12-10T04:07:41.456Z,93.68
2018-12-10T04:08:41.421Z,93.37
2018-12-10T04:09:41.407Z,93.68
2018-12-10T04:10:41.409Z,93.27
2018-12-10T04:11:41.389Z,93.58
2018-12-10T04:12:41.390Z,93.52
2018-12-10T04:13:41.350Z,93.62
2018-12-10T04:14:41.354Z,93.68
2018-12-10T04:15:41.333Z,93.58
2018-12-10T04:16:41.320Z,93.37
2018-12-10T04:17:41.313Z,93.68
2018-12-10T04:18:41.308Z,93.89
2018-12-10T04:19:41.285Z,93.62
2018-12-10T04:20:41.329Z,93.48
2018-12-10T04:21:41.265Z,93.62
2018-12-10T04:22:41.292Z,93.73
2018-12-10T04:23:41.249Z,93.41
2018-12-10T04:24:41.239Z,93.73
2018-12-10T04:25:41.221Z,93.31
2018-12-10T04:26:41.231Z,93.93
2018-12-10T04:27:41.207Z,93.83
2018-12-10T04:28:41.194Z,94.14
2018-12-10T04:29:41.210Z,93.31
2018-12-10T04:30:41.165Z,93.52
2018-12-10T04:31:41.156Z,93.62
2018-12-10T04:32:41.182Z,93.73
2018-12-10T04:33:41.133Z,93.25
2018-12-10T04:34:41.137Z,93.00
2018-12-10T04:35:41.127Z,94.04
2018-12-10T04:36:41.119Z,93.62
2018-12-10T04:37:41.090Z,93.52
2018-12-10T04:38:41.081Z,93.83
2018-12-10T04:39:41.074Z,93.77
2018-12-10T04:40:41.073Z,93.00
2018-12-10T04:41:41.055Z,93.62
2018-12-10T04:42:41.115Z,93.93
2018-12-10T04:43:41.037Z,93.77
2018-12-10T04:44:41.021Z,93.41
2018-12-10T04:45:41.047Z,94.14
2018-12-10T04:46:40.990Z,93.52
2018-12-10T04:47:40.997Z,93.52
2018-12-10T04:48:41.031Z,94.14
2018-12-10T04:49:40.970Z,93.21
2018-12-10T04:50:40.957Z,94.14
2018-12-10T04:51:40.948Z,93.62
2018-12-10T04:52:40.953Z,93.41
2018-12-10T04:53:40.926Z,93.52
2018-12-10T04:54:40.910Z,92.80
2018-12-10T04:55:40.906Z,93.06
2018-12-10T04:56:40.902Z,93.73
2018-12-10T04:57:40.883Z,93.10
2018-12-10T04:58:40.895Z,93.21
2018-12-10T04:59:40.856Z,93.93
2018-12-10T05:00:40.869Z,93.41
2018-12-10T05:01:40.834Z,92.65
2018-12-10T05:02:40.831Z,92.55
2018-12-10T05:03:40.869Z,93.06
2018-12-10T05:04:40.808Z,92.49
2018-12-10T05:05:40.784Z,92.96
2018-12-10T05:06:40.787Z,92.85
2018-12-10T05:07:40.778Z,93.06
2018-12-10T05:08:40.773Z,93.16
2018-12-10T05:09:40.765Z,92.34
2018-12-10T05:10:40.741Z,92.65
2018-12-10T05:11:40.722Z,92.13
2018-12-10T05:12:40.730Z,92.44
2018-12-10T05:13:40.701Z,93.27
2018-12-10T05:14:40.696Z,92.96
2018-12-10T05:15:40.696Z,92.44
2018-12-10T05:16:40.671Z,92.85
2018-12-10T05:17:40.659Z,92.13
2018-12-10T05:18:40.666Z,93.06
2018-12-10T05:19:40.662Z,92.81
2018-12-10T05:20:40.667Z,92.44
2018-12-10T05:21:40.621Z,92.24
2018-12-10T05:22:40.600Z,92.24
2018-12-10T05:23:40.601Z,91.93
2018-12-10T05:24:40.574Z,92.03
2018-12-10T05:25:40.580Z,91.41
2018-12-10T05:26:40.572Z,91.41
2018-12-10T05:27:40.547Z,91.72
2018-12-10T05:28:40.539Z,92.13
2018-12-10T05:29:40.535Z,92.03
2018-12-10T05:30:40.522Z,91.41
2018-12-10T05:31:40.513Z,92.03
2018-12-10T05:32:40.502Z,91.93
2018-12-10T05:33:40.509Z,91.51
2018-12-10T05:34:40.480Z,91.93
2018-12-10T05:35:40.484Z,91.61
2018-12-10T05:36:40.456Z,91.72
2018-12-10T05:37:40.443Z,91.41
2018-12-10T05:38:40.442Z,91.72
2018-12-10T05:39:40.438Z,91.72
2018-12-10T05:40:40.406Z,91.41
2018-12-10T05:41:40.388Z,91.61
2018-12-10T05:42:40.389Z,91.61
2018-12-10T05:43:40.386Z,91.51
2018-12-10T05:44:40.371Z,91.93
2018-12-10T05:45:40.376Z,91.72
2018-12-10T05:46:40.339Z,91.72
2018-12-10T05:47:40.327Z,91.41
2018-12-10T05:48:40.319Z,91.30
2018-12-10T05:49:40.306Z,91.61
2018-12-10T05:50:40.298Z,91.72
2018-12-10T05:51:40.298Z,91.51
2018-12-10T05:52:40.283Z,91.41
2018-12-10T05:53:40.270Z,91.51
2018-12-10T05:54:40.258Z,91.72
2018-12-10T05:55:40.299Z,91.45
2018-12-10T05:56:40.326Z,92.03
2018-12-10T05:57:40.230Z,91.93
2018-12-10T05:58:40.210Z,91.66
2018-12-10T05:59:40.214Z,91.09
2018-12-10T06:00:40.196Z,91.09
2018-12-10T06:01:40.222Z,91.30
2018-12-10T06:02:40.170Z,90.99
2018-12-10T06:03:40.167Z,90.06
2018-12-10T06:04:40.147Z,90.58
2018-12-10T06:05:40.148Z,90.20
2018-12-10T06:06:40.144Z,90.89
2018-12-10T06:07:40.116Z,91.14
2018-12-10T06:08:40.104Z,91.09
2018-12-10T06:09:40.100Z,91.20
2018-12-10T06:10:40.085Z,90.93
2018-12-10T06:11:40.066Z,91.03
2018-12-10T06:12:40.080Z,91.14
2018-12-10T06:13:40.060Z,90.93
2018-12-10T06:14:40.039Z,91.03
2018-12-10T06:15:40.030Z,90.72
2018-12-10T06:16:40.015Z,91.09
2018-12-10T06:17:40.017Z,90.68
2018-12-10T06:18:40.012Z,90.72
2018-12-10T06:19:40.005Z,91.20
2018-12-10T06:20:39.975Z,91.14
2018-12-10T06:21:39.962Z,91.09
2018-12-10T06:22:39.972Z,90.89
2018-12-10T06:23:39.938Z,90.99
2018-12-10T06:24:39.933Z,90.62
2018-12-10T06:25:39.918Z,91.24
2018-12-10T06:26:39.922Z,91.09
2018-12-10T06:27:39.900Z,91.03
2018-12-10T06:28:39.909Z,90.37
2018-12-10T06:29:39.878Z,91.20
2018-12-10T06:30:39.879Z,90.93
2018-12-10T06:31:39.885Z,90.99
2018-12-10T06:32:39.854Z,91.14
2018-12-10T06:33:39.835Z,90.83
2018-12-10T06:34:39.827Z,90.00
2018-12-10T06:35:39.812Z,90.41
2018-12-10T06:36:39.798Z,91.35
2018-12-10T06:37:39.804Z,91.86
2018-12-10T06:38:39.777Z,91.86
2018-12-10T06:39:39.803Z,90.93
2018-12-10T06:40:39.768Z,91.14
2018-12-10T06:41:39.764Z,90.97
2018-12-10T06:42:39.778Z,91.18
2018-12-10T06:43:39.726Z,91.91
2018-12-10T06:44:39.711Z,91.91
2018-12-10T06:45:39.707Z,91.80
2018-12-10T06:46:39.707Z,90.77
2018-12-10T06:47:39.697Z,91.60
2018-12-10T06:48:39.676Z,91.45
2018-12-10T06:49:39.658Z,91.76
2018-12-10T06:50:39.644Z,91.91
2018-12-10T06:51:39.670Z,91.70
2018-12-10T06:52:39.650Z,90.97
2018-12-10T06:53:39.624Z,90.83
2018-12-10T06:54:39.624Z,91.14
2018-12-10T06:55:39.598Z,91.14
2018-12-10T06:56:39.582Z,91.03
2018-12-10T06:57:39.572Z,91.14
2018-12-10T06:58:39.575Z,90.62
2018-12-10T06:59:39.577Z,90.20
2018-12-10T07:00:39.543Z,90.62
2018-12-10T07:01:39.530Z,90.62
2018-12-10T07:02:39.522Z,90.62
2018-12-10T07:03:39.519Z,91.24
2018-12-10T07:04:39.529Z,91.03
2018-12-10T07:05:39.500Z,91.35
2018-12-10T07:06:39.490Z,90.41
2018-12-10T07:07:39.462Z,90.93
2018-12-10T07:08:39.453Z,90.93
2018-12-10T07:09:39.456Z,90.72
2018-12-10T07:10:39.431Z,90.31
2018-12-10T07:11:39.432Z,90.41
2018-12-10T07:12:39.415Z,90.72
2018-12-10T07:13:39.413Z,90.10
2018-12-10T07:14:39.419Z,90.72
2018-12-10T07:15:39.377Z,91.24
2018-12-10T07:16:39.372Z,90.83
2018-12-10T07:17:39.372Z,90.62
2018-12-10T07:18:39.385Z,91.03
2018-12-10T07:19:39.333Z,91.14
2018-12-10T07:20:39.337Z,90.10
2018-12-10T07:21:39.336Z,90.31
2018-12-10T07:22:39.301Z,89.89
2018-12-10T07:23:39.299Z,90.20
2018-12-10T07:24:39.299Z,90.10
2018-12-10T07:25:39.273Z,90.10
2018-12-10T07:26:39.274Z,90.10
2018-12-10T07:27:39.261Z,90.00
2018-12-10T07:28:39.240Z,89.89
2018-12-10T07:29:39.228Z,90.10
2018-12-10T07:30:41.471Z,90.62
2018-12-10T07:31:39.211Z,90.20
2018-12-10T07:32:39.196Z,90.00
2018-12-10T07:33:39.193Z,90.20
2018-12-10T07:34:39.187Z,90.10
2018-12-10T07:35:39.178Z,91.35
2018-12-10T07:36:39.154Z,90.62
2018-12-10T07:37:39.167Z,90.56
2018-12-10T07:38:39.133Z,90.52
2018-12-10T07:39:39.118Z,90.72
2018-12-10T07:40:39.122Z,90.20
2018-12-10T07:41:39.097Z,90.10
2018-12-10T07:42:39.083Z,90.31
2018-12-10T07:43:39.080Z,89.58
2018-12-10T07:44:39.070Z,89.69
2018-12-10T07:45:39.068Z,90.20
2018-12-10T07:46:39.047Z,90.52
2018-12-10T07:47:39.034Z,90.26
2018-12-10T07:48:39.022Z,89.65
2018-12-10T07:49:39.013Z,90.52
2018-12-10T07:50:39.031Z,89.89
2018-12-10T07:51:38.986Z,89.75
2018-12-10T07:52:38.988Z,89.54
2018-12-10T07:53:38.967Z,89.03
2018-12-10T07:54:38.953Z,89.34
2018-12-10T07:55:38.964Z,88.82
2018-12-10T07:56:38.939Z,88.71
2018-12-10T07:57:39.019Z,88.51
2018-12-10T07:58:38.945Z,88.61
2018-12-10T07:59:38.915Z,89.03
2018-12-10T08:00:38.925Z,88.51
2018-12-10T08:01:38.896Z,87.88
2018-12-10T08:02:38.882Z,87.99
2018-12-10T08:03:38.863Z,87.57
2018-12-10T08:04:38.936Z,87.57
2018-12-10T08:05:38.883Z,88.20
2018-12-10T08:06:38.853Z,87.16
2018-12-10T08:07:38.820Z,87.47
2018-12-10T08:08:38.812Z,87.47
2018-12-10T08:09:38.798Z,86.85
2018-12-10T08:10:38.808Z,87.47
2018-12-10T08:11:38.784Z,87.37
2018-12-10T08:12:38.760Z,87.06
2018-12-10T08:13:38.774Z,87.12
2018-12-10T08:14:38.742Z,87.88
2018-12-10T08:15:38.752Z,88.51
2018-12-10T08:16:38.735Z,86.91
2018-12-10T08:17:38.711Z,87.16
2018-12-10T08:18:38.715Z,87.43
2018-12-10T08:19:38.709Z,87.99
2018-12-10T08:20:38.680Z,87.12
2018-12-10T08:21:38.669Z,87.23
2018-12-10T08:22:38.674Z,88.51
2018-12-10T08:23:38.663Z,87.37
2018-12-10T08:24:38.634Z,87.64
2018-12-10T08:25:38.631Z,88.16
2018-12-10T08:26:38.622Z,87.54
2018-12-10T08:27:38.629Z,86.91
2018-12-10T08:28:38.593Z,86.50
2018-12-10T08:29:38.585Z,87.37
2018-12-10T08:30:38.573Z,87.12
2018-12-10T08:31:38.553Z,87.12
2018-12-10T08:32:38.546Z,87.02
2018-12-10T08:33:38.549Z,87.33
2018-12-10T08:35:40.890Z,87.33
2018-12-10T08:35:41.932Z,87.33
2018-12-10T08:36:38.527Z,86.81
2018-12-10T08:37:38.507Z,86.44
2018-12-10T08:38:38.495Z,87.54
2018-12-10T08:39:38.476Z,86.40
2018-12-10T08:40:38.462Z,86.71
2018-12-10T08:41:38.451Z,86.81
2018-12-10T08:42:38.447Z,86.71
2018-12-10T08:43:38.440Z,86.81
2018-12-10T08:44:38.418Z,87.33
2018-12-10T08:45:38.424Z,86.91
2018-12-10T08:46:38.432Z,86.91
2018-12-10T08:47:38.396Z,87.33
2018-12-10T08:48:38.393Z,87.23
2018-12-10T08:49:38.389Z,86.91
2018-12-10T08:50:38.362Z,86.71
2018-12-10T08:51:38.352Z,86.85
2018-12-10T08:52:38.337Z,86.50
2018-12-10T08:53:38.324Z,87.33
2018-12-10T08:54:38.327Z,87.33
2018-12-10T08:55:38.304Z,87.68
2018-12-10T08:56:38.301Z,87.33
2018-12-10T08:57:38.294Z,87.54
2018-12-10T08:58:38.273Z,86.71
2018-12-10T08:59:38.281Z,86.91
2018-12-10T09:00:38.258Z,87.43
2018-12-10T09:01:38.238Z,87.02
2018-12-10T09:02:38.253Z,86.91
2018-12-10T09:03:38.248Z,86.71
2018-12-10T09:04:38.219Z,86.60
2018-12-10T09:05:38.206Z,86.60
2018-12-10T09:06:38.184Z,86.29
2018-12-10T09:07:38.203Z,86.29
2018-12-10T09:08:38.177Z,86.91
2018-12-10T09:09:38.181Z,86.67
2018-12-10T09:10:38.143Z,87.02
2018-12-10T09:11:38.251Z,86.36
2018-12-10T09:12:38.136Z,86.81
2018-12-10T09:13:38.112Z,87.02
2018-12-10T09:14:38.111Z,86.50
2018-12-10T09:15:38.082Z,87.74
2018-12-10T09:16:38.081Z,88.26
2018-12-10T09:17:38.083Z,88.26
2018-12-10T09:18:38.053Z,88.16
2018-12-10T09:19:38.047Z,88.26
2018-12-10T09:20:38.054Z,88.57
2018-12-10T09:21:38.027Z,88.36
2018-12-10T09:22:38.082Z,88.67
2018-12-10T09:23:38.001Z,88.67
2018-12-10T09:24:37.992Z,89.29
2018-12-10T09:25:37.980Z,88.88
2018-12-10T09:26:37.988Z,88.78
2018-12-10T09:27:37.962Z,88.88
2018-12-10T09:28:37.952Z,89.71
2018-12-10T09:29:38.071Z,90.23
2018-12-10T09:30:37.959Z,90.33
2018-12-10T09:31:37.942Z,90.33
2018-12-10T09:32:37.936Z,90.23
2018-12-10T09:33:37.896Z,90.44
2018-12-10T09:34:37.895Z,88.88
2018-12-10T09:35:37.869Z,89.61
2018-12-10T09:36:37.876Z,90.02
2018-12-10T09:37:37.850Z,90.12
2018-12-10T09:38:37.840Z,89.71
2018-12-10T09:39:37.843Z,90.12
2018-12-10T09:40:37.823Z,89.61
2018-12-10T09:41:37.807Z,90.12
2018-12-10T09:42:37.820Z,90.23
2018-12-10T09:43:37.801Z,91.16
2018-12-10T09:44:37.779Z,90.12
2018-12-10T09:45:37.787Z,89.81
2018-12-10T09:46:37.778Z,90.12
2018-12-10T09:47:37.745Z,90.19
2018-12-10T09:48:37.753Z,90.23
2018-12-10T09:49:37.723Z,89.77
2018-12-10T09:50:37.720Z,90.12
2018-12-10T09:51:37.732Z,89.46
2018-12-10T09:52:37.695Z,90.08
2018-12-10T09:53:37.692Z,89.40
2018-12-10T09:54:37.701Z,89.77
2018-12-10T09:55:37.679Z,89.77
2018-12-10T09:56:37.660Z,89.46
2018-12-10T09:57:37.639Z,89.25
2018-12-10T09:58:37.631Z,90.39
2018-12-10T09:59:37.613Z,90.08
2018-12-10T10:00:37.615Z,89.62
2018-12-10T10:01:37.593Z,89.01
2018-12-10T10:02:37.577Z,88.59
2018-12-10T10:03:37.576Z,88.49
2018-12-10T10:04:37.572Z,90.35
2018-12-10T10:05:37.596Z,89.62
2018-12-10T10:06:37.552Z,89.17
2018-12-10T10:07:37.540Z,89.22
2018-12-10T10:08:37.530Z,88.49
2018-12-10T10:09:37.508Z,89.59
2018-12-10T10:10:37.505Z,89.38
2018-12-10T10:11:37.488Z,88.14
2018-12-10T10:12:37.482Z,88.34
2018-12-10T10:13:37.473Z,88.51
2018-12-10T10:14:37.449Z,88.41
2018-12-10T10:15:37.555Z,88.82
2018-12-10T10:16:37.448Z,88.10
2018-12-10T10:17:37.442Z,88.20
2018-12-10T10:18:37.433Z,88.10
2018-12-10T10:19:37.398Z,87.62
2018-12-10T10:20:37.389Z,88.24
2018-12-10T10:21:37.388Z,88.24
2018-12-10T10:22:37.369Z,88.65
2018-12-10T10:23:37.361Z,88.65
2018-12-10T10:24:37.353Z,87.73
2018-12-10T10:25:37.338Z,88.04
2018-12-10T10:26:37.339Z,87.93
2018-12-10T10:27:37.311Z,87.93
2018-12-10T10:28:37.303Z,86.38
2018-12-10T10:29:37.304Z,87.10
2018-12-10T10:30:37.299Z,87.00
2018-12-10T10:31:37.311Z,86.44
2018-12-10T10:32:37.255Z,86.79
2018-12-10T10:33:37.254Z,86.44
2018-12-10T10:34:37.240Z,86.76
2018-12-10T10:35:37.225Z,86.76
2018-12-10T10:36:37.239Z,86.65
2018-12-10T10:37:37.217Z,86.76
2018-12-10T10:38:37.193Z,86.55
2018-12-10T10:39:37.194Z,86.13
2018-12-10T10:40:37.178Z,85.62
2018-12-10T10:41:37.180Z,85.62
2018-12-10T10:42:37.163Z,86.07
2018-12-10T10:43:37.139Z,85.76
2018-12-10T10:44:37.131Z,85.93
2018-12-10T10:45:37.112Z,86.76
2018-12-10T10:46:37.104Z,86.44
2018-12-10T10:47:37.093Z,85.00
2018-12-10T10:48:37.113Z,84.79
2018-12-10T10:49:37.079Z,85.86
2018-12-10T10:50:37.065Z,86.07
2018-12-10T10:51:37.071Z,85.66
2018-12-10T10:52:37.040Z,84.94
2018-12-10T10:53:37.035Z,85.00
2018-12-10T10:54:37.031Z,85.21
2018-12-10T10:55:37.023Z,85.14
2018-12-10T10:56:37.000Z,85.24
2018-12-10T10:57:37.000Z,84.69
2018-12-10T10:58:36.977Z,85.00
2018-12-10T10:59:36.961Z,85.10
2018-12-10T11:00:36.957Z,84.89
2018-12-10T11:01:36.945Z,85.04
2018-12-10T11:02:36.950Z,84.00
2018-12-10T11:03:36.916Z,85.62
2018-12-10T11:04:37.655Z,84.38
2018-12-10T11:05:36.893Z,85.00
2018-12-10T11:06:36.884Z,85.21
2018-12-10T11:07:36.876Z,84.07
2018-12-10T11:08:36.873Z,84.07
2018-12-10T11:09:36.895Z,84.79
2018-12-10T11:10:36.845Z,85.21
2018-12-10T11:11:36.833Z,84.65
2018-12-10T11:12:36.818Z,84.44
2018-12-10T11:13:36.807Z,85.27
2018-12-10T11:14:36.814Z,84.65
2018-12-10T11:15:36.793Z,83.31
2018-12-10T11:16:36.783Z,83.72
2018-12-10T11:17:36.777Z,83.83
2018-12-10T11:18:36.762Z,84.96
2018-12-10T11:19:36.764Z,84.03
2018-12-10T11:20:36.742Z,83.93
2018-12-10T11:21:36.728Z,84.75
2018-12-10T11:22:36.723Z,84.48
2018-12-10T11:23:36.708Z,84.69
2018-12-10T11:24:36.703Z,84.48
2018-12-10T11:25:36.709Z,84.59
2018-12-10T11:26:36.674Z,84.89
2018-12-10T11:27:36.684Z,85.00
2018-12-10T11:28:36.652Z,85.72
2018-12-10T11:29:36.642Z,86.03
2018-12-10T11:30:36.649Z,86.13
2018-12-10T11:31:36.620Z,85.52
2018-12-10T11:32:36.629Z,86.34
2018-12-10T11:33:36.617Z,86.55
2018-12-10T11:34:36.587Z,86.76
2018-12-10T11:35:36.575Z,86.44
2018-12-10T11:36:36.595Z,86.86
2018-12-10T11:37:36.550Z,87.27
2018-12-10T11:38:36.537Z,87.07
2018-12-10T11:39:36.538Z,86.34
2018-12-10T11:40:36.541Z,86.44
2018-12-10T11:41:36.511Z,87.17
2018-12-10T11:42:36.511Z,87.07
2018-12-10T11:43:36.496Z,88.10
2018-12-10T11:44:36.468Z,87.79
2018-12-10T11:45:36.456Z,87.99
2018-12-10T11:46:36.452Z,88.51
2018-12-10T11:47:36.461Z,88.14
2018-12-10T11:48:36.435Z,88.82
2018-12-10T11:49:36.416Z,88.61
2018-12-10T11:50:36.430Z,88.86
2018-12-10T11:51:36.403Z,88.65
2018-12-10T11:52:36.404Z,89.59
2018-12-10T11:53:36.386Z,89.17
2018-12-10T11:54:36.366Z,88.61
2018-12-10T11:55:36.351Z,89.23
2018-12-10T11:56:36.352Z,88.82
2018-12-10T11:57:36.342Z,89.03
2018-12-10T11:58:36.318Z,88.68
2018-12-10T11:59:36.315Z,88.47
2018-12-10T12:00:36.306Z,87.85
2018-12-10T12:01:36.306Z,88.57
2018-12-10T12:02:36.310Z,88.16
2018-12-10T12:03:36.286Z,88.26
2018-12-10T12:04:36.252Z,88.98
2018-12-10T12:05:36.259Z,88.98
2018-12-10T12:06:36.253Z,88.22
2018-12-10T12:07:36.244Z,88.57
2018-12-10T12:08:36.214Z,87.71
2018-12-10T12:09:36.207Z,87.23
2018-12-10T12:10:36.197Z,86.98
2018-12-10T12:11:36.184Z,87.81
2018-12-10T12:12:36.195Z,88.32
2018-12-10T12:13:36.189Z,88.12
2018-12-10T12:14:36.147Z,87.19
2018-12-10T12:15:36.152Z,86.94
2018-12-10T12:16:36.128Z,86.63
2018-12-10T12:17:36.112Z,87.15
2018-12-10T12:18:36.119Z,85.71
2018-12-10T12:19:36.114Z,84.57
2018-12-10T12:20:36.091Z,85.05
2018-12-10T12:21:36.067Z,84.74
2018-12-10T12:22:36.066Z,84.67
2018-12-10T12:23:36.061Z,84.84
2018-12-10T12:24:36.043Z,84.06
2018-12-10T12:25:36.036Z,84.78
2018-12-10T12:26:36.049Z,84.94
2018-12-10T12:27:36.019Z,84.84
2018-12-10T12:28:36.118Z,84.99
2018-12-10T12:29:35.985Z,85.71
2018-12-10T12:30:35.971Z,84.99
2018-12-10T12:31:35.967Z,84.67
2018-12-10T12:32:35.959Z,85.71
2018-12-10T12:33:35.952Z,85.30
2018-12-10T12:34:35.943Z,84.78
2018-12-10T12:35:35.921Z,85.09
2018-12-10T12:36:35.936Z,85.71
2018-12-10T12:37:35.902Z,85.97
2018-12-10T12:38:35.924Z,86.02
2018-12-10T12:39:35.873Z,85.87
2018-12-10T12:40:35.861Z,85.71
2018-12-10T12:41:35.927Z,86.53
2018-12-10T12:42:35.860Z,85.71
2018-12-10T12:43:35.837Z,85.81
2018-12-10T12:44:35.824Z,86.22
2018-12-10T12:45:35.825Z,85.81
2018-12-10T12:46:35.808Z,85.85
2018-12-10T12:47:35.786Z,85.81
2018-12-10T12:48:35.790Z,85.50
2018-12-10T12:49:35.772Z,86.02
2018-12-10T12:50:35.773Z,86.05
2018-12-10T12:51:35.746Z,86.05
2018-12-10T12:52:35.752Z,85.50